Berta — V2BQ6 — position and weather

sailwx.info

Track history (hours):
 
Tides and Currents Weather Stations Pressure Air Temp Water Temp Dewpoint Dewpoint Depression Visibility Wind Speed Wind Dir Waves Ship Positions

Berta

Last reported at 2016-Jun-28 20:33 UTC. Time now 2016-Jun-30 01:36 UTC.
Position N 58°50' E 004°34'.

Length 118 m; draft 6.7 m.

Type: Cargo ship. MMSI: 304586000.

Date/timePositionNaut miles runAvg speedWind from/ knotsBaromVisibWave heightAir tempDewpointWater temp
2016-Jun-28 20:33N 58°50' E 004°34'1312.8
2016-Jun-28 19:33N 58°40' E 004°50'1212.2
2016-Jun-28 18:33N 58°31' E 005°06'1312.5
2016-Jun-28 17:32N 58°21' E 005°22'18713.4
2016-Jun-28 03:33N 55°19' E 006°41'1313.4
2016-Jun-28 02:33N 55°06' E 006°46'1312.8
2016-Jun-28 01:34N 54°55' E 006°55'1312.7
2016-Jun-28 00:33N 54°43' E 007°05'1312.7
2016-Jun-27 23:33N 54°32' E 007°15'1313.2
2016-Jun-27 22:33N 54°21' E 007°27'1413.8
2016-Jun-27 21:34N 54°10' E 007°43'1414.3
2016-Jun-27 20:33N 54°02' E 008°03'1413.8
2016-Jun-27 19:33N 53°59' E 008°26'1414.0
2016-Jun-27 18:33N 53°51' E 008°46'1211.7
2016-Jun-27 17:33N 53°53' E 009°05'9 9.3
2016-Jun-27 16:34N 53°50' E 009°21'1111.2
2016-Jun-27 15:33N 53°41' E 009°30'1110.6
2016-Jun-27 14:33N 53°34' E 009°44'7 6.3
2016-Jun-27 13:31N 53°32' E 009°55'0 0.0
2016-Jun-27 12:31N 53°32' E 009°55'0 0.0
2016-Jun-27 11:31N 53°32' E 009°55'0 0.0
2016-Jun-27 10:31N 53°32' E 009°55'0 0.0
2016-Jun-27 09:31N 53°32' E 009°55'0 0.0
2016-Jun-27 08:31N 53°32' E 009°55'0 0.4
2016-Jun-27 07:34N 53°32' E 009°54'3 2.6
2016-Jun-27 06:32N 53°30' E 009°56'0 0.0
2016-Jun-27 05:32N 53°30' E 009°56'0 0.0
2016-Jun-27 04:32N 53°30' E 009°56'2 2.5
2016-Jun-27 03:33N 53°33' E 009°56'1 1.0
2016-Jun-27 02:33N 53°32' E 009°58'0 0.0
2016-Jun-27 01:33N 53°32' E 009°58'0 0.0
2016-Jun-27 00:33N 53°32' E 009°58'0 0.0
2016-Jun-26 23:33N 53°32' E 009°58'0 0.0
2016-Jun-26 22:33N 53°32' E 009°58'0 0.0
2016-Jun-26 21:33N 53°32' E 009°58'0 0.0
2016-Jun-26 20:33N 53°32' E 009°58'0 0.0
2016-Jun-26 19:33N 53°32' E 009°58'0 0.0
2016-Jun-26 18:33N 53°32' E 009°58'0 0.0
2016-Jun-26 17:33N 53°32' E 009°58'0 0.0
2016-Jun-26 16:33N 53°32' E 009°58'0 0.0
2016-Jun-26 15:33N 53°32' E 009°58'0 0.0
2016-Jun-26 14:33N 53°32' E 009°58'0 0.0
2016-Jun-26 13:33N 53°32' E 009°58'0 0.0
2016-Jun-26 12:33N 53°32' E 009°58'0 0.0
2016-Jun-26 11:33N 53°32' E 009°58'0 0.0
2016-Jun-26 10:33N 53°32' E 009°58'0 0.0
2016-Jun-26 09:33N 53°32' E 009°58'0 0.0
2016-Jun-26 08:33N 53°32' E 009°58'0 0.0
2016-Jun-26 07:33N 53°32' E 009°58'0 0.0
2016-Jun-26 06:33N 53°32' E 009°58'0 0.0
2016-Jun-26 05:33N 53°32' E 009°58'0 0.0
2016-Jun-26 04:33N 53°32' E 009°58'0 0.0
2016-Jun-26 03:33N 53°32' E 009°58'0 0.0
2016-Jun-26 02:33N 53°32' E 009°58'0 0.0
2016-Jun-26 01:33N 53°32' E 009°58'0 0.0
2016-Jun-26 00:33N 53°32' E 009°58'0 0.0
2016-Jun-25 23:33N 53°32' E 009°58'0 0.0
2016-Jun-25 22:33N 53°32' E 009°58'0 0.0
2016-Jun-25 21:33N 53°32' E 009°58'0 0.0
2016-Jun-25 20:33N 53°32' E 009°58'0 0.0
2016-Jun-25 19:33N 53°32' E 009°58'0 0.0
2016-Jun-25 18:33N 53°32' E 009°58'0 0.0
2016-Jun-25 17:33N 53°32' E 009°58'0 0.0
2016-Jun-25 16:34N 53°32' E 009°58'0 0.0
2016-Jun-25 15:33N 53°32' E 009°58'0 0.0
2016-Jun-25 14:34N 53°32' E 009°58'0 0.0
2016-Jun-25 13:33N 53°32' E 009°58'0 0.0
2016-Jun-25 12:33N 53°32' E 009°58'0 0.0
2016-Jun-25 11:33N 53°32' E 009°58'0 0.0
2016-Jun-25 10:34N 53°32' E 009°58'0 0.0
2016-Jun-25 09:33N 53°32' E 009°58'0 0.0
2016-Jun-25 08:33N 53°32' E 009°58'0 0.0
2016-Jun-25 07:34N 53°32' E 009°58'0 0.0
2016-Jun-25 06:33N 53°32' E 009°58'0 0.0
2016-Jun-25 05:33N 53°32' E 009°58'0 0.0
2016-Jun-25 04:34N 53°32' E 009°58'0 0.0
2016-Jun-25 03:33N 53°32' E 009°58'0 0.0
2016-Jun-25 02:33N 53°32' E 009°58'0 0.0
2016-Jun-25 01:33N 53°32' E 009°58'0 0.0
2016-Jun-25 00:34N 53°32' E 009°58'0 0.0
2016-Jun-24 23:33N 53°32' E 009°58'0 0.0
2016-Jun-24 22:34N 53°32' E 009°58'0 0.0
2016-Jun-24 21:34N 53°32' E 009°58'0 0.0
2016-Jun-24 20:33N 53°32' E 009°58'0 0.0
2016-Jun-24 19:33N 53°32' E 009°58'0 0.0
2016-Jun-24 18:33N 53°32' E 009°58'0 0.0
2016-Jun-24 17:34N 53°32' E 009°58'0 0.0
2016-Jun-24 16:33N 53°32' E 009°58'0 0.0
2016-Jun-24 15:33N 53°32' E 009°58'0 0.0
2016-Jun-24 14:33N 53°32' E 009°58'0 0.0
2016-Jun-24 13:34N 53°32' E 009°58'0 0.0
2016-Jun-24 12:33N 53°32' E 009°58'0 0.0
2016-Jun-24 11:34N 53°32' E 009°58'0 0.0
2016-Jun-24 10:34N 53°32' E 009°58'0 0.0
2016-Jun-24 09:33N 53°32' E 009°58'0 0.0
2016-Jun-24 08:33N 53°32' E 009°58'0 0.0
2016-Jun-24 07:33N 53°32' E 009°58'0 0.0
2016-Jun-24 04:34N 53°32' E 009°58'0 0.0
2016-Jun-24 03:33N 53°32' E 009°58'0 0.0
2016-Jun-24 02:33N 53°32' E 009°58'0 0.0
2016-Jun-24 01:34N 53°32' E 009°58'0 0.0
2016-Jun-24 00:33N 53°32' E 009°58'0 0.0
2016-Jun-23 23:34N 53°32' E 009°58'0 0.0
2016-Jun-23 22:33N 53°32' E 009°58'0 0.0
2016-Jun-23 21:34N 53°32' E 009°58'0 0.0
2016-Jun-23 20:33N 53°32' E 009°58'0 0.0
2016-Jun-23 19:34N 53°32' E 009°58'0 0.0
2016-Jun-23 18:34N 53°32' E 009°58'0 0.0
2016-Jun-23 17:33N 53°32' E 009°58'0 0.0
2016-Jun-23 16:34N 53°32' E 009°58'0 0.0
2016-Jun-23 15:34N 53°32' E 009°58'0 0.0
2016-Jun-23 14:33N 53°32' E 009°58'0 0.0
2016-Jun-23 13:34N 53°32' E 009°58'0 0.0
2016-Jun-23 12:34N 53°32' E 009°58'0 0.0
2016-Jun-23 11:33N 53°32' E 009°58'0 0.0
2016-Jun-23 10:34N 53°32' E 009°58'0 0.0
2016-Jun-23 09:34N 53°32' E 009°58'0 0.0
2016-Jun-23 08:33N 53°32' E 009°58'0 0.0
2016-Jun-23 07:33N 53°32' E 009°58'0 0.0
2016-Jun-23 05:33N 53°32' E 009°58'0 0.0
2016-Jun-23 04:33N 53°32' E 009°58'0 0.0
2016-Jun-23 03:34N 53°32' E 009°58'0 0.0
2016-Jun-23 02:33N 53°32' E 009°58'0 0.0
2016-Jun-23 01:33N 53°32' E 009°58'0 0.0
2016-Jun-23 00:34N 53°32' E 009°58'0 0.0
2016-Jun-22 23:34N 53°32' E 009°58'0 0.0
2016-Jun-22 22:33N 53°32' E 009°58'0 0.0
2016-Jun-22 21:33N 53°32' E 009°58'0 0.0
2016-Jun-22 20:33N 53°32' E 009°58'0 0.0
2016-Jun-22 19:33N 53°32' E 009°58'0 0.0
2016-Jun-22 18:33N 53°32' E 009°58'0 0.0
2016-Jun-22 17:33N 53°32' E 009°58'0 0.0
2016-Jun-22 16:33N 53°32' E 009°58'0 0.0
2016-Jun-22 15:34N 53°32' E 009°58'0 0.0
2016-Jun-22 14:34N 53°32' E 009°58'0 0.0
2016-Jun-22 13:33N 53°32' E 009°58'0 0.0
2016-Jun-22 12:33N 53°32' E 009°58'0 0.0
2016-Jun-22 11:33N 53°32' E 009°58'0 0.0
2016-Jun-22 10:34N 53°32' E 009°58'0 0.0
2016-Jun-22 09:33N 53°32' E 009°58'0 0.0
2016-Jun-22 08:34N 53°32' E 009°58'0 0.0
2016-Jun-22 07:33N 53°32' E 009°58'0 0.0
2016-Jun-22 06:33N 53°32' E 009°58'0 0.0
2016-Jun-22 05:33N 53°32' E 009°58'0 0.0
2016-Jun-22 04:33N 53°32' E 009°58'0 0.0
2016-Jun-22 03:33N 53°32' E 009°58'0 0.0
2016-Jun-22 02:33N 53°32' E 009°58'0 0.0
2016-Jun-22 01:33N 53°32' E 009°58'0 0.0
2016-Jun-22 00:33N 53°32' E 009°58'0 0.0
2016-Jun-21 23:33N 53°32' E 009°58'0 0.0
2016-Jun-21 22:33N 53°32' E 009°58'0 0.0
2016-Jun-21 21:33N 53°32' E 009°58'0 0.0
2016-Jun-21 20:33N 53°32' E 009°58'0 0.0
2016-Jun-21 19:33N 53°32' E 009°58'0 0.0
2016-Jun-21 18:33N 53°32' E 009°58'0 0.0
2016-Jun-21 17:33N 53°32' E 009°58'0 0.0
2016-Jun-21 16:33N 53°32' E 009°58'0 0.0
2016-Jun-21 15:34N 53°32' E 009°58'0 0.0
2016-Jun-21 14:33N 53°32' E 009°58'0 0.0
2016-Jun-21 13:33N 53°32' E 009°58'0 0.0
2016-Jun-21 12:33N 53°32' E 009°58'0 0.0
2016-Jun-21 11:34N 53°32' E 009°58'0 0.0
2016-Jun-21 10:33N 53°32' E 009°58'0 0.0
2016-Jun-21 09:33N 53°32' E 009°58'0 0.0
2016-Jun-21 08:33N 53°32' E 009°58'0 0.0
2016-Jun-21 07:33N 53°32' E 009°58'0 0.0
2016-Jun-21 05:33N 53°32' E 009°58'0 0.0
2016-Jun-21 04:33N 53°32' E 009°58'0 0.0
2016-Jun-21 03:33N 53°32' E 009°58'0 0.0
2016-Jun-21 02:34N 53°32' E 009°58'0 0.0
2016-Jun-21 01:33N 53°32' E 009°58'0 0.0
2016-Jun-21 00:33N 53°32' E 009°58'0 0.0
2016-Jun-20 23:33N 53°32' E 009°58'0 0.0
2016-Jun-20 22:34N 53°32' E 009°58'0 0.0
2016-Jun-20 21:33N 53°32' E 009°58'0 0.0
2016-Jun-20 20:33N 53°32' E 009°58'0 0.0
2016-Jun-20 19:33N 53°32' E 009°58'0 0.0
2016-Jun-20 18:33N 53°32' E 009°58'0 0.0
2016-Jun-20 17:33N 53°32' E 009°58'1 1.3
2016-Jun-20 16:33N 53°32' E 009°56'1 0.8
2016-Jun-20 15:33N 53°32' E 009°56'0 0.0
2016-Jun-20 14:33N 53°32' E 009°56'0 0.0
2016-Jun-20 13:34N 53°32' E 009°56'0 0.0
2016-Jun-20 12:33N 53°32' E 009°56'0 0.0
2016-Jun-20 11:34N 53°32' E 009°56'1 0.5
2016-Jun-20 10:33N 53°32' E 009°55'2 1.6
2016-Jun-20 09:33N 53°31' E 009°56'0 0.0
2016-Jun-20 08:33N 53°31' E 009°56'0 0.0
2016-Jun-20 07:34N 53°31' E 009°56'0 0.0
2016-Jun-20 06:34N 53°31' E 009°56'0 0.0
2016-Jun-20 05:33N 53°31' E 009°56'0 0.0
2016-Jun-20 04:33N 53°31' E 009°56'0 0.0
2016-Jun-20 03:34N 53°31' E 009°56'0 0.0
2016-Jun-20 02:33N 53°31' E 009°56'0 0.0
2016-Jun-20 01:33N 53°31' E 009°56'4 4.2
2016-Jun-20 00:34N 53°33' E 009°50'1312.7
2016-Jun-19 23:33N 53°39' E 009°31'1414.0
2016-Jun-19 22:34N 53°51' E 009°19'1212.5
2016-Jun-19 21:33N 53°51' E 008°58'1313.0
2016-Jun-19 20:33N 53°57' E 008°38'1515.2
2016-Jun-19 19:33N 53°60' E 008°13'1211.7
2016-Jun-19 18:33N 54°03' E 007°54'1211.5
2016-Jun-19 17:33N 54°09' E 007°37'1111.3
2016-Jun-19 16:34N 54°18' E 007°26'1211.5
2016-Jun-19 15:33N 54°28' E 007°17'1111.0
2016-Jun-19 14:33N 54°38' E 007°08'1111.1
2016-Jun-19 13:33N 54°48' E 006°60'1111.3
2016-Jun-19 12:33N 54°58' E 006°51'1111.4
2016-Jun-19 11:33N 55°09' E 006°45'1211.7
2016-Jun-19 10:33N 55°20' E 006°41'  
Track history (hours):
 
Tides and Currents Weather Stations Pressure Air Temp Water Temp Dewpoint Dewpoint Depression Visibility Wind Speed Wind Dir Waves Ship Positions

Berta

Last reported at 2016-Jun-28 20:33 UTC. Time now 2016-Jun-30 01:36 UTC.
Position N 58°50' E 004°34'.

Length 118 m; draft 6.7 m.

Type: Cargo ship. MMSI: 304586000.

Date/timePositionNaut miles runAvg speedWind from/ knotsBaromVisibWave heightAir tempDewpointWater temp
2016-Jun-28 20:33N 58°50' E 004°34'1312.8
2016-Jun-28 19:33N 58°40' E 004°50'1212.2
2016-Jun-28 18:33N 58°31' E 005°06'1312.5
2016-Jun-28 17:32N 58°21' E 005°22'18713.4
2016-Jun-28 03:33N 55°19' E 006°41'1313.4
2016-Jun-28 02:33N 55°06' E 006°46'1312.8
2016-Jun-28 01:34N 54°55' E 006°55'1312.7
2016-Jun-28 00:33N 54°43' E 007°05'1312.7
2016-Jun-27 23:33N 54°32' E 007°15'1313.2
2016-Jun-27 22:33N 54°21' E 007°27'1413.8
2016-Jun-27 21:34N 54°10' E 007°43'1414.3
2016-Jun-27 20:33N 54°02' E 008°03'1413.8
2016-Jun-27 19:33N 53°59' E 008°26'1414.0
2016-Jun-27 18:33N 53°51' E 008°46'1211.7
2016-Jun-27 17:33N 53°53' E 009°05'9 9.3
2016-Jun-27 16:34N 53°50' E 009°21'1111.2
2016-Jun-27 15:33N 53°41' E 009°30'1110.6
2016-Jun-27 14:33N 53°34' E 009°44'7 6.3
2016-Jun-27 13:31N 53°32' E 009°55'0 0.0
2016-Jun-27 12:31N 53°32' E 009°55'0 0.0
2016-Jun-27 11:31N 53°32' E 009°55'0 0.0
2016-Jun-27 10:31N 53°32' E 009°55'0 0.0
2016-Jun-27 09:31N 53°32' E 009°55'0 0.0
2016-Jun-27 08:31N 53°32' E 009°55'0 0.4
2016-Jun-27 07:34N 53°32' E 009°54'3 2.6
2016-Jun-27 06:32N 53°30' E 009°56'0 0.0
2016-Jun-27 05:32N 53°30' E 009°56'0 0.0
2016-Jun-27 04:32N 53°30' E 009°56'2 2.5
2016-Jun-27 03:33N 53°33' E 009°56'1 1.0
2016-Jun-27 02:33N 53°32' E 009°58'0 0.0
2016-Jun-27 01:33N 53°32' E 009°58'0 0.0
2016-Jun-27 00:33N 53°32' E 009°58'0 0.0
2016-Jun-26 23:33N 53°32' E 009°58'0 0.0
2016-Jun-26 22:33N 53°32' E 009°58'0 0.0
2016-Jun-26 21:33N 53°32' E 009°58'0 0.0
2016-Jun-26 20:33N 53°32' E 009°58'0 0.0
2016-Jun-26 19:33N 53°32' E 009°58'0 0.0
2016-Jun-26 18:33N 53°32' E 009°58'0 0.0
2016-Jun-26 17:33N 53°32' E 009°58'0 0.0
2016-Jun-26 16:33N 53°32' E 009°58'0 0.0
2016-Jun-26 15:33N 53°32' E 009°58'0 0.0
2016-Jun-26 14:33N 53°32' E 009°58'0 0.0
2016-Jun-26 13:33N 53°32' E 009°58'0 0.0
2016-Jun-26 12:33N 53°32' E 009°58'0 0.0
2016-Jun-26 11:33N 53°32' E 009°58'0 0.0
2016-Jun-26 10:33N 53°32' E 009°58'0 0.0
2016-Jun-26 09:33N 53°32' E 009°58'0 0.0
2016-Jun-26 08:33N 53°32' E 009°58'0 0.0
2016-Jun-26 07:33N 53°32' E 009°58'0 0.0
2016-Jun-26 06:33N 53°32' E 009°58'0 0.0
2016-Jun-26 05:33N 53°32' E 009°58'0 0.0
2016-Jun-26 04:33N 53°32' E 009°58'0 0.0
2016-Jun-26 03:33N 53°32' E 009°58'0 0.0
2016-Jun-26 02:33N 53°32' E 009°58'0 0.0
2016-Jun-26 01:33N 53°32' E 009°58'0 0.0
2016-Jun-26 00:33N 53°32' E 009°58'0 0.0
2016-Jun-25 23:33N 53°32' E 009°58'0 0.0
2016-Jun-25 22:33N 53°32' E 009°58'0 0.0
2016-Jun-25 21:33N 53°32' E 009°58'0 0.0
2016-Jun-25 20:33N 53°32' E 009°58'0 0.0
2016-Jun-25 19:33N 53°32' E 009°58'0 0.0
2016-Jun-25 18:33N 53°32' E 009°58'0 0.0
2016-Jun-25 17:33N 53°32' E 009°58'0 0.0
2016-Jun-25 16:34N 53°32' E 009°58'0 0.0
2016-Jun-25 15:33N 53°32' E 009°58'0 0.0
2016-Jun-25 14:34N 53°32' E 009°58'0 0.0
2016-Jun-25 13:33N 53°32' E 009°58'0 0.0
2016-Jun-25 12:33N 53°32' E 009°58'0 0.0
2016-Jun-25 11:33N 53°32' E 009°58'0 0.0
2016-Jun-25 10:34N 53°32' E 009°58'0 0.0
2016-Jun-25 09:33N 53°32' E 009°58'0 0.0
2016-Jun-25 08:33N 53°32' E 009°58'0 0.0
2016-Jun-25 07:34N 53°32' E 009°58'0 0.0
2016-Jun-25 06:33N 53°32' E 009°58'0 0.0
2016-Jun-25 05:33N 53°32' E 009°58'0 0.0
2016-Jun-25 04:34N 53°32' E 009°58'0 0.0
2016-Jun-25 03:33N 53°32' E 009°58'0 0.0
2016-Jun-25 02:33N 53°32' E 009°58'0 0.0
2016-Jun-25 01:33N 53°32' E 009°58'0 0.0
2016-Jun-25 00:34N 53°32' E 009°58'0 0.0
2016-Jun-24 23:33N 53°32' E 009°58'0 0.0
2016-Jun-24 22:34N 53°32' E 009°58'0 0.0
2016-Jun-24 21:34N 53°32' E 009°58'0 0.0
2016-Jun-24 20:33N 53°32' E 009°58'0 0.0
2016-Jun-24 19:33N 53°32' E 009°58'0 0.0
2016-Jun-24 18:33N 53°32' E 009°58'0 0.0
2016-Jun-24 17:34N 53°32' E 009°58'0 0.0
2016-Jun-24 16:33N 53°32' E 009°58'0 0.0
2016-Jun-24 15:33N 53°32' E 009°58'0 0.0
2016-Jun-24 14:33N 53°32' E 009°58'0 0.0
2016-Jun-24 13:34N 53°32' E 009°58'0 0.0
2016-Jun-24 12:33N 53°32' E 009°58'0 0.0
2016-Jun-24 11:34N 53°32' E 009°58'0 0.0
2016-Jun-24 10:34N 53°32' E 009°58'0 0.0
2016-Jun-24 09:33N 53°32' E 009°58'0 0.0
2016-Jun-24 08:33N 53°32' E 009°58'0 0.0
2016-Jun-24 07:33N 53°32' E 009°58'0 0.0
2016-Jun-24 04:34N 53°32' E 009°58'0 0.0
2016-Jun-24 03:33N 53°32' E 009°58'0 0.0
2016-Jun-24 02:33N 53°32' E 009°58'0 0.0
2016-Jun-24 01:34N 53°32' E 009°58'0 0.0
2016-Jun-24 00:33N 53°32' E 009°58'0 0.0
2016-Jun-23 23:34N 53°32' E 009°58'0 0.0
2016-Jun-23 22:33N 53°32' E 009°58'0 0.0
2016-Jun-23 21:34N 53°32' E 009°58'0 0.0
2016-Jun-23 20:33N 53°32' E 009°58'0 0.0
2016-Jun-23 19:34N 53°32' E 009°58'0 0.0
2016-Jun-23 18:34N 53°32' E 009°58'0 0.0
2016-Jun-23 17:33N 53°32' E 009°58'0 0.0
2016-Jun-23 16:34N 53°32' E 009°58'0 0.0
2016-Jun-23 15:34N 53°32' E 009°58'0 0.0
2016-Jun-23 14:33N 53°32' E 009°58'0 0.0
2016-Jun-23 13:34N 53°32' E 009°58'0 0.0
2016-Jun-23 12:34N 53°32' E 009°58'0 0.0
2016-Jun-23 11:33N 53°32' E 009°58'0 0.0
2016-Jun-23 10:34N 53°32' E 009°58'0 0.0
2016-Jun-23 09:34N 53°32' E 009°58'0 0.0
2016-Jun-23 08:33N 53°32' E 009°58'0 0.0
2016-Jun-23 07:33N 53°32' E 009°58'0 0.0
2016-Jun-23 05:33N 53°32' E 009°58'0 0.0
2016-Jun-23 04:33N 53°32' E 009°58'0 0.0
2016-Jun-23 03:34N 53°32' E 009°58'0 0.0
2016-Jun-23 02:33N 53°32' E 009°58'0 0.0
2016-Jun-23 01:33N 53°32' E 009°58'0 0.0
2016-Jun-23 00:34N 53°32' E 009°58'0 0.0
2016-Jun-22 23:34N 53°32' E 009°58'0 0.0
2016-Jun-22 22:33N 53°32' E 009°58'0 0.0
2016-Jun-22 21:33N 53°32' E 009°58'0 0.0
2016-Jun-22 20:33N 53°32' E 009°58'0 0.0
2016-Jun-22 19:33N 53°32' E 009°58'0 0.0
2016-Jun-22 18:33N 53°32' E 009°58'0 0.0
2016-Jun-22 17:33N 53°32' E 009°58'0 0.0
2016-Jun-22 16:33N 53°32' E 009°58'0 0.0
2016-Jun-22 15:34N 53°32' E 009°58'0 0.0
2016-Jun-22 14:34N 53°32' E 009°58'0 0.0
2016-Jun-22 13:33N 53°32' E 009°58'0 0.0
2016-Jun-22 12:33N 53°32' E 009°58'0 0.0
2016-Jun-22 11:33N 53°32' E 009°58'0 0.0
2016-Jun-22 10:34N 53°32' E 009°58'0 0.0
2016-Jun-22 09:33N 53°32' E 009°58'0 0.0
2016-Jun-22 08:34N 53°32' E 009°58'0 0.0
2016-Jun-22 07:33N 53°32' E 009°58'0 0.0
2016-Jun-22 06:33N 53°32' E 009°58'0 0.0
2016-Jun-22 05:33N 53°32' E 009°58'0 0.0
2016-Jun-22 04:33N 53°32' E 009°58'0 0.0
2016-Jun-22 03:33N 53°32' E 009°58'0 0.0
2016-Jun-22 02:33N 53°32' E 009°58'0 0.0
2016-Jun-22 01:33N 53°32' E 009°58'0 0.0
2016-Jun-22 00:33N 53°32' E 009°58'0 0.0
2016-Jun-21 23:33N 53°32' E 009°58'0 0.0
2016-Jun-21 22:33N 53°32' E 009°58'0 0.0
2016-Jun-21 21:33N 53°32' E 009°58'0 0.0
2016-Jun-21 20:33N 53°32' E 009°58'0 0.0
2016-Jun-21 19:33N 53°32' E 009°58'0 0.0
2016-Jun-21 18:33N 53°32' E 009°58'0 0.0
2016-Jun-21 17:33N 53°32' E 009°58'0 0.0
2016-Jun-21 16:33N 53°32' E 009°58'0 0.0
2016-Jun-21 15:34N 53°32' E 009°58'0 0.0
2016-Jun-21 14:33N 53°32' E 009°58'0 0.0
2016-Jun-21 13:33N 53°32' E 009°58'0 0.0
2016-Jun-21 12:33N 53°32' E 009°58'0 0.0
2016-Jun-21 11:34N 53°32' E 009°58'0 0.0
2016-Jun-21 10:33N 53°32' E 009°58'0 0.0
2016-Jun-21 09:33N 53°32' E 009°58'0 0.0
2016-Jun-21 08:33N 53°32' E 009°58'0 0.0
2016-Jun-21 07:33N 53°32' E 009°58'0 0.0
2016-Jun-21 05:33N 53°32' E 009°58'0 0.0
2016-Jun-21 04:33N 53°32' E 009°58'0 0.0
2016-Jun-21 03:33N 53°32' E 009°58'0 0.0
2016-Jun-21 02:34N 53°32' E 009°58'0 0.0
2016-Jun-21 01:33N 53°32' E 009°58'0 0.0
2016-Jun-21 00:33N 53°32' E 009°58'0 0.0
2016-Jun-20 23:33N 53°32' E 009°58'0 0.0
2016-Jun-20 22:34N 53°32' E 009°58'0 0.0
2016-Jun-20 21:33N 53°32' E 009°58'0 0.0
2016-Jun-20 20:33N 53°32' E 009°58'0 0.0
2016-Jun-20 19:33N 53°32' E 009°58'0 0.0
2016-Jun-20 18:33N 53°32' E 009°58'0 0.0
2016-Jun-20 17:33N 53°32' E 009°58'1 1.3
2016-Jun-20 16:33N 53°32' E 009°56'1 0.8
2016-Jun-20 15:33N 53°32' E 009°56'0 0.0
2016-Jun-20 14:33N 53°32' E 009°56'0 0.0
2016-Jun-20 13:34N 53°32' E 009°56'0 0.0
2016-Jun-20 12:33N 53°32' E 009°56'0 0.0
2016-Jun-20 11:34N 53°32' E 009°56'1 0.5
2016-Jun-20 10:33N 53°32' E 009°55'2 1.6
2016-Jun-20 09:33N 53°31' E 009°56'0 0.0
2016-Jun-20 08:33N 53°31' E 009°56'0 0.0
2016-Jun-20 07:34N 53°31' E 009°56'0 0.0
2016-Jun-20 06:34N 53°31' E 009°56'0 0.0
2016-Jun-20 05:33N 53°31' E 009°56'0 0.0
2016-Jun-20 04:33N 53°31' E 009°56'0 0.0
2016-Jun-20 03:34N 53°31' E 009°56'0 0.0
2016-Jun-20 02:33N 53°31' E 009°56'0 0.0
2016-Jun-20 01:33N 53°31' E 009°56'4 4.2
2016-Jun-20 00:34N 53°33' E 009°50'1312.7
2016-Jun-19 23:33N 53°39' E 009°31'1414.0
2016-Jun-19 22:34N 53°51' E 009°19'1212.5
2016-Jun-19 21:33N 53°51' E 008°58'1313.0
2016-Jun-19 20:33N 53°57' E 008°38'1515.2
2016-Jun-19 19:33N 53°60' E 008°13'1211.7
2016-Jun-19 18:33N 54°03' E 007°54'1211.5
2016-Jun-19 17:33N 54°09' E 007°37'1111.3
2016-Jun-19 16:34N 54°18' E 007°26'1211.5
2016-Jun-19 15:33N 54°28' E 007°17'1111.0
2016-Jun-19 14:33N 54°38' E 007°08'1111.1
2016-Jun-19 13:33N 54°48' E 006°60'1111.3
2016-Jun-19 12:33N 54°58' E 006°51'1111.4
2016-Jun-19 11:33N 55°09' E 006°45'1211.7
2016-Jun-19 10:33N 55°20' E 006°41'  

Dump ship's entire track history